KDAY/DAY METAR and TAF weather

Enter ICAO airport designator
Station Type Date Time Source
KDAY METAR 2020/01/18 04:28 UTC NOAA

KDAY 180428Z 11015KT 9SM -SNPL OVC037 M01/M06 A3035 RMK AO2 FZRAE26SNB26PLB28 PRESFR P0000 I1000 T10111056


Station Type Date Time Source
KDAY Decoded METAR 2020/01/18 04:28 UTC NOAA

COX DAYTON INTERNATIONAL, OH, United States (KDAY) 39-54N 084-13W 305M
Jan 17, 2020 - 11:28 PM EST / 2020.01.18 0428 UTC
Wind: from the ESE (110 degrees) at 17 MPH (15 KT):0
Visibility: 9 mile(s):0
Sky conditions: overcast
Weather: light snow, ice pellets
Precipitation last hour: A trace
Temperature: 30.0 F (-1.1 C)
Windchill: 17 F (-8 C):1
Dew Point: 21.9 F (-5.6 C)
Relative Humidity: 71%
Pressure (altimeter): 30.35 in. Hg (1027 hPa)
Pressure tendency: falling rapidly
ob: KDAY 180428Z 11015KT 9SM -SNPL OVC037 M01/M06 A3035 RMK AO2 FZRAE26SNB26PLB28 PRESFR P0000 I1000 T10111056
cycle: 4

Station Type Date Time Source
KDAY TAF 2020/01/18 04:57 UTC NOAA

TAF
AMD KDAY 180355Z 1804/1824 12014KT P6SM -FZRAPL OVC045
FM180900 14014KT 5SM -FZRA OVC050 WS020/19040KT
FM181100 16015G23KT 4SM -RA OVC050
FM181400 18017KT 4SM -RA OVC015
FM181500 19017G25KT 3SM -RA OVC008 WS020/20050KT
FM181900 22020G31KT 6SM BR OVC015 WS020/24055KT

Example: see airport list